sensor_id;sensor_type;location;lat;lon;timestamp;temperature;humidity
39519;DHT22;25200;53.394;10.414;2024-03-08T00:01:14;4.30;91.10
39519;DHT22;25200;53.394;10.414;2024-03-08T00:03:39;4.30;91.10
39519;DHT22;25200;53.394;10.414;2024-03-08T00:06:05;4.20;91.10
39519;DHT22;25200;53.394;10.414;2024-03-08T00:08:31;4.20;91.10
39519;DHT22;25200;53.394;10.414;2024-03-08T00:10:57;4.20;91.10
39519;DHT22;25200;53.394;10.414;2024-03-08T00:13:22;4.20;91.10
39519;DHT22;25200;53.394;10.414;2024-03-08T00:15:50;4.20;91.10
39519;DHT22;25200;53.394;10.414;2024-03-08T00:18:16;4.20;91.40
39519;DHT22;25200;53.394;10.414;2024-03-08T00:20:42;4.10;91.10
39519;DHT22;25200;53.394;10.414;2024-03-08T00:23:07;4.10;91.10
39519;DHT22;25200;53.394;10.414;2024-03-08T00:25:33;4.10;91.10
39519;DHT22;25200;53.394;10.414;2024-03-08T00:27:59;4.10;91.20
39519;DHT22;25200;53.394;10.414;2024-03-08T00:30:25;4.10;91.10
39519;DHT22;25200;53.394;10.414;2024-03-08T00:32:51;4.10;91.10
39519;DHT22;25200;53.394;10.414;2024-03-08T00:35:16;4.10;91.10
39519;DHT22;25200;53.394;10.414;2024-03-08T00:37:43;4.10;91.10
39519;DHT22;25200;53.394;10.414;2024-03-08T00:40:12;4.00;91.10
39519;DHT22;25200;53.394;10.414;2024-03-08T00:42:38;4.00;91.10
39519;DHT22;25200;53.394;10.414;2024-03-08T00:45:05;4.00;91.10
39519;DHT22;25200;53.394;10.414;2024-03-08T00:47:31;4.00;91.10
39519;DHT22;25200;53.394;10.414;2024-03-08T00:49:56;4.00;91.10
39519;DHT22;25200;53.394;10.414;2024-03-08T00:52:22;4.00;91.10
39519;DHT22;25200;53.394;10.414;2024-03-08T00:54:49;4.00;91.20
39519;DHT22;25200;53.394;10.414;2024-03-08T00:57:15;4.00;91.10
39519;DHT22;25200;53.394;10.414;2024-03-08T00:59:40;3.90;91.10
39519;DHT22;25200;53.394;10.414;2024-03-08T01:02:06;3.90;91.10
39519;DHT22;25200;53.394;10.414;2024-03-08T01:04:32;3.90;91.30
39519;DHT22;25200;53.394;10.414;2024-03-08T01:06:59;3.90;91.20
39519;DHT22;25200;53.394;10.414;2024-03-08T01:09:25;3.90;91.20
39519;DHT22;25200;53.394;10.414;2024-03-08T01:11:55;3.80;91.10
39519;DHT22;25200;53.394;10.414;2024-03-08T01:14:21;3.80;91.10
39519;DHT22;25200;53.394;10.414;2024-03-08T01:16:51;3.80;91.10
39519;DHT22;25200;53.394;10.414;2024-03-08T01:19:17;3.80;91.10
39519;DHT22;25200;53.394;10.414;2024-03-08T01:21:43;3.80;91.10
39519;DHT22;25200;53.394;10.414;2024-03-08T01:24:09;3.80;91.20
39519;DHT22;25200;53.394;10.414;2024-03-08T01:26:34;3.80;91.10
39519;DHT22;25200;53.394;10.414;2024-03-08T01:29:01;3.70;91.10
39519;DHT22;25200;53.394;10.414;2024-03-08T01:31:29;3.70;91.10
39519;DHT22;25200;53.394;10.414;2024-03-08T01:33:55;3.70;91.10
39519;DHT22;25200;53.394;10.414;2024-03-08T01:36:21;3.70;91.20
39519;DHT22;25200;53.394;10.414;2024-03-08T01:38:47;3.70;91.20
39519;DHT22;25200;53.394;10.414;2024-03-08T01:41:12;3.60;91.20
39519;DHT22;25200;53.394;10.414;2024-03-08T01:43:39;3.60;91.20
39519;DHT22;25200;53.394;10.414;2024-03-08T01:46:05;3.50;91.20
39519;DHT22;25200;53.394;10.414;2024-03-08T01:48:32;3.50;91.20
39519;DHT22;25200;53.394;10.414;2024-03-08T01:50:58;3.50;91.20
39519;DHT22;25200;53.394;10.414;2024-03-08T01:53:27;3.50;91.30
39519;DHT22;25200;53.394;10.414;2024-03-08T01:55:57;3.50;91.20
39519;DHT22;25200;53.394;10.414;2024-03-08T01:58:23;3.50;91.20
39519;DHT22;25200;53.394;10.414;2024-03-08T02:00:50;3.50;91.20
39519;DHT22;25200;53.394;10.414;2024-03-08T02:03:16;3.50;91.30
39519;DHT22;25200;53.394;10.414;2024-03-08T02:05:42;3.40;91.30
39519;DHT22;25200;53.394;10.414;2024-03-08T02:08:09;3.40;91.20
39519;DHT22;25200;53.394;10.414;2024-03-08T02:10:40;3.40;91.20
39519;DHT22;25200;53.394;10.414;2024-03-08T02:13:07;3.40;91.20
39519;DHT22;25200;53.394;10.414;2024-03-08T02:15:56;3.30;91.30
39519;DHT22;25200;53.394;10.414;2024-03-08T02:18:22;3.30;91.30
39519;DHT22;25200;53.394;10.414;2024-03-08T02:20:52;3.30;91.50
39519;DHT22;25200;53.394;10.414;2024-03-08T02:23:19;3.30;91.20
39519;DHT22;25200;53.394;10.414;2024-03-08T02:25:45;3.30;91.20
39519;DHT22;25200;53.394;10.414;2024-03-08T02:28:11;3.30;91.20
39519;DHT22;25200;53.394;10.414;2024-03-08T02:30:37;3.30;91.20
39519;DHT22;25200;53.394;10.414;2024-03-08T02:33:06;3.30;91.20
39519;DHT22;25200;53.394;10.414;2024-03-08T02:35:33;3.30;91.20
39519;DHT22;25200;53.394;10.414;2024-03-08T02:37:59;3.20;91.10
39519;DHT22;25200;53.394;10.414;2024-03-08T02:40:25;3.20;91.20
39519;DHT22;25200;53.394;10.414;2024-03-08T02:42:51;3.20;91.20
39519;DHT22;25200;53.394;10.414;2024-03-08T02:45:16;3.20;91.30
39519;DHT22;25200;53.394;10.414;2024-03-08T02:47:42;3.20;91.20
39519;DHT22;25200;53.394;10.414;2024-03-08T02:50:08;3.10;91.20
39519;DHT22;25200;53.394;10.414;2024-03-08T02:52:34;3.10;91.30
39519;DHT22;25200;53.394;10.414;2024-03-08T02:55:04;3.10;91.30
39519;DHT22;25200;53.394;10.414;2024-03-08T02:57:31;3.10;91.20
39519;DHT22;25200;53.394;10.414;2024-03-08T03:00:00;3.10;91.30
39519;DHT22;25200;53.394;10.414;2024-03-08T03:02:26;3.00;91.30
39519;DHT22;25200;53.394;10.414;2024-03-08T03:04:52;3.10;91.30
39519;DHT22;25200;53.394;10.414;2024-03-08T03:07:18;3.10;91.30
39519;DHT22;25200;53.394;10.414;2024-03-08T03:09:43;3.10;91.30
39519;DHT22;25200;53.394;10.414;2024-03-08T03:12:09;3.00;91.20
39519;DHT22;25200;53.394;10.414;2024-03-08T03:14:37;3.10;91.20
39519;DHT22;25200;53.394;10.414;2024-03-08T03:17:06;3.00;91.20
39519;DHT22;25200;53.394;10.414;2024-03-08T03:19:31;3.00;91.20
39519;DHT22;25200;53.394;10.414;2024-03-08T03:21:57;3.00;91.30
39519;DHT22;25200;53.394;10.414;2024-03-08T03:24:23;3.00;91.20
39519;DHT22;25200;53.394;10.414;2024-03-08T03:26:49;3.00;91.30
39519;DHT22;25200;53.394;10.414;2024-03-08T03:29:15;3.00;91.30
39519;DHT22;25200;53.394;10.414;2024-03-08T03:31:42;2.90;91.20
39519;DHT22;25200;53.394;10.414;2024-03-08T03:34:10;2.90;91.30
39519;DHT22;25200;53.394;10.414;2024-03-08T03:36:37;3.00;91.30
39519;DHT22;25200;53.394;10.414;2024-03-08T03:39:08;2.90;91.30
39519;DHT22;25200;53.394;10.414;2024-03-08T03:41:38;2.90;91.30
39519;DHT22;25200;53.394;10.414;2024-03-08T03:44:05;2.90;91.30
39519;DHT22;25200;53.394;10.414;2024-03-08T03:46:33;2.90;91.30
39519;DHT22;25200;53.394;10.414;2024-03-08T03:48:58;2.90;91.30
39519;DHT22;25200;53.394;10.414;2024-03-08T03:51:24;2.80;91.30
39519;DHT22;25200;53.394;10.414;2024-03-08T03:53:50;2.80;91.30
39519;DHT22;25200;53.394;10.414;2024-03-08T03:56:15;2.80;91.40
39519;DHT22;25200;53.394;10.414;2024-03-08T03:58:41;2.80;91.30
39519;DHT22;25200;53.394;10.414;2024-03-08T04:01:07;2.80;91.30
39519;DHT22;25200;53.394;10.414;2024-03-08T04:03:33;2.80;91.30
39519;DHT22;25200;53.394;10.414;2024-03-08T04:05:59;2.70;91.20
39519;DHT22;25200;53.394;10.414;2024-03-08T04:08:24;2.70;91.20
39519;DHT22;25200;53.394;10.414;2024-03-08T04:10:50;2.70;91.30
39519;DHT22;25200;53.394;10.414;2024-03-08T04:13:16;2.70;91.30
39519;DHT22;25200;53.394;10.414;2024-03-08T04:15:42;2.70;91.20
39519;DHT22;25200;53.394;10.414;2024-03-08T04:18:09;2.70;91.30
39519;DHT22;25200;53.394;10.414;2024-03-08T04:20:35;2.70;91.20
39519;DHT22;25200;53.394;10.414;2024-03-08T04:23:01;2.70;91.30
39519;DHT22;25200;53.394;10.414;2024-03-08T04:25:27;2.70;91.30
39519;DHT22;25200;53.394;10.414;2024-03-08T04:27:53;2.60;91.20
39519;DHT22;25200;53.394;10.414;2024-03-08T04:30:18;2.60;91.20
39519;DHT22;25200;53.394;10.414;2024-03-08T04:32:46;2.60;91.20
39519;DHT22;25200;53.394;10.414;2024-03-08T04:35:13;2.60;91.20
39519;DHT22;25200;53.394;10.414;2024-03-08T04:37:40;2.60;91.20
39519;DHT22;25200;53.394;10.414;2024-03-08T04:40:06;2.60;91.20
39519;DHT22;25200;53.394;10.414;2024-03-08T04:42:33;2.60;91.20
39519;DHT22;25200;53.394;10.414;2024-03-08T04:44:59;2.60;91.20
39519;DHT22;25200;53.394;10.414;2024-03-08T04:47:25;2.50;91.20
39519;DHT22;25200;53.394;10.414;2024-03-08T04:49:51;2.50;91.50
39519;DHT22;25200;53.394;10.414;2024-03-08T04:52:16;2.50;91.30
39519;DHT22;25200;53.394;10.414;2024-03-08T04:54:43;2.50;91.30
39519;DHT22;25200;53.394;10.414;2024-03-08T04:57:10;2.40;91.40
39519;DHT22;25200;53.394;10.414;2024-03-08T04:59:36;2.40;91.30
39519;DHT22;25200;53.394;10.414;2024-03-08T05:02:02;2.40;91.30
39519;DHT22;25200;53.394;10.414;2024-03-08T05:04:27;2.40;91.40
39519;DHT22;25200;53.394;10.414;2024-03-08T05:06:54;2.40;91.30
39519;DHT22;25200;53.394;10.414;2024-03-08T05:09:20;2.40;91.30
39519;DHT22;25200;53.394;10.414;2024-03-08T05:11:46;2.40;91.20
39519;DHT22;25200;53.394;10.414;2024-03-08T05:14:13;2.50;91.30
39519;DHT22;25200;53.394;10.414;2024-03-08T05:16:46;2.40;91.20
39519;DHT22;25200;53.394;10.414;2024-03-08T05:19:18;2.50;91.30
39519;DHT22;25200;53.394;10.414;2024-03-08T05:21:48;2.50;91.30
39519;DHT22;25200;53.394;10.414;2024-03-08T05:24:14;2.50;91.30
39519;DHT22;25200;53.394;10.414;2024-03-08T05:26:41;2.50;91.30
39519;DHT22;25200;53.394;10.414;2024-03-08T05:29:07;2.50;91.30
39519;DHT22;25200;53.394;10.414;2024-03-08T05:34:12;2.50;91.30
39519;DHT22;25200;53.394;10.414;2024-03-08T05:36:40;2.50;91.30
39519;DHT22;25200;53.394;10.414;2024-03-08T05:39:06;2.50;91.20
39519;DHT22;25200;53.394;10.414;2024-03-08T05:41:35;2.50;91.30
39519;DHT22;25200;53.394;10.414;2024-03-08T05:44:01;2.50;91.20
39519;DHT22;25200;53.394;10.414;2024-03-08T05:46:26;2.50;91.30
39519;DHT22;25200;53.394;10.414;2024-03-08T05:48:52;2.50;91.20
39519;DHT22;25200;53.394;10.414;2024-03-08T05:51:18;2.40;91.20
39519;DHT22;25200;53.394;10.414;2024-03-08T05:53:46;2.40;91.30
39519;DHT22;25200;53.394;10.414;2024-03-08T05:56:12;2.40;91.30
39519;DHT22;25200;53.394;10.414;2024-03-08T05:58:37;2.40;91.30
39519;DHT22;25200;53.394;10.414;2024-03-08T06:01:03;2.40;91.20
39519;DHT22;25200;53.394;10.414;2024-03-08T06:03:33;2.40;91.20
39519;DHT22;25200;53.394;10.414;2024-03-08T06:05:59;2.40;91.30
39519;DHT22;25200;53.394;10.414;2024-03-08T06:08:25;2.40;91.20
39519;DHT22;25200;53.394;10.414;2024-03-08T06:10:55;2.40;91.20
39519;DHT22;25200;53.394;10.414;2024-03-08T06:13:21;2.40;91.30
39519;DHT22;25200;53.394;10.414;2024-03-08T06:15:47;2.40;91.20
39519;DHT22;25200;53.394;10.414;2024-03-08T06:18:12;2.40;91.30
39519;DHT22;25200;53.394;10.414;2024-03-08T06:20:38;2.40;91.30
39519;DHT22;25200;53.394;10.414;2024-03-08T06:23:03;2.40;91.30
39519;DHT22;25200;53.394;10.414;2024-03-08T06:25:29;2.40;91.40
39519;DHT22;25200;53.394;10.414;2024-03-08T06:27:55;2.40;91.40
39519;DHT22;25200;53.394;10.414;2024-03-08T06:30:20;2.40;91.40
39519;DHT22;25200;53.394;10.414;2024-03-08T06:32:46;2.40;91.30
39519;DHT22;25200;53.394;10.414;2024-03-08T06:35:12;2.40;91.30
39519;DHT22;25200;53.394;10.414;2024-03-08T06:37:37;2.40;91.40
39519;DHT22;25200;53.394;10.414;2024-03-08T06:40:04;2.40;91.40
39519;DHT22;25200;53.394;10.414;2024-03-08T06:42:29;2.40;91.30
39519;DHT22;25200;53.394;10.414;2024-03-08T06:44:59;2.40;91.40
39519;DHT22;25200;53.394;10.414;2024-03-08T06:47:30;2.40;91.30
39519;DHT22;25200;53.394;10.414;2024-03-08T06:49:55;2.40;91.40
39519;DHT22;25200;53.394;10.414;2024-03-08T06:52:21;2.40;91.40
39519;DHT22;25200;53.394;10.414;2024-03-08T06:54:48;2.40;91.40
39519;DHT22;25200;53.394;10.414;2024-03-08T06:57:13;2.40;91.40
39519;DHT22;25200;53.394;10.414;2024-03-08T06:59:39;2.40;91.40
39519;DHT22;25200;53.394;10.414;2024-03-08T07:02:05;2.50;91.40
39519;DHT22;25200;53.394;10.414;2024-03-08T07:04:34;2.40;91.30
39519;DHT22;25200;53.394;10.414;2024-03-08T07:07:03;2.50;91.50
39519;DHT22;25200;53.394;10.414;2024-03-08T07:09:29;2.50;91.40
39519;DHT22;25200;53.394;10.414;2024-03-08T07:11:55;2.50;91.40
39519;DHT22;25200;53.394;10.414;2024-03-08T07:14:22;2.50;91.50
39519;DHT22;25200;53.394;10.414;2024-03-08T07:16:47;2.50;91.40
39519;DHT22;25200;53.394;10.414;2024-03-08T07:19:13;2.50;91.60
39519;DHT22;25200;53.394;10.414;2024-03-08T07:21:39;2.50;91.40
39519;DHT22;25200;53.394;10.414;2024-03-08T07:24:04;2.50;91.50
39519;DHT22;25200;53.394;10.414;2024-03-08T07:26:43;2.50;91.50
39519;DHT22;25200;53.394;10.414;2024-03-08T07:29:09;2.50;91.40
39519;DHT22;25200;53.394;10.414;2024-03-08T07:31:34;2.60;91.50
39519;DHT22;25200;53.394;10.414;2024-03-08T07:34:10;2.60;91.50
39519;DHT22;25200;53.394;10.414;2024-03-08T07:36:36;2.60;91.60
39519;DHT22;25200;53.394;10.414;2024-03-08T07:39:02;2.60;91.60
39519;DHT22;25200;53.394;10.414;2024-03-08T07:41:27;2.60;91.50
39519;DHT22;25200;53.394;10.414;2024-03-08T07:43:55;2.60;91.50
39519;DHT22;25200;53.394;10.414;2024-03-08T07:46:21;2.60;91.60
39519;DHT22;25200;53.394;10.414;2024-03-08T07:48:46;2.60;91.50
39519;DHT22;25200;53.394;10.414;2024-03-08T07:51:16;2.60;91.60
39519;DHT22;25200;53.394;10.414;2024-03-08T07:53:43;2.70;91.60
39519;DHT22;25200;53.394;10.414;2024-03-08T07:56:09;2.70;91.60
39519;DHT22;25200;53.394;10.414;2024-03-08T07:58:38;2.70;91.60
39519;DHT22;25200;53.394;10.414;2024-03-08T08:01:06;2.70;91.60
39519;DHT22;25200;53.394;10.414;2024-03-08T08:03:32;2.60;91.80
39519;DHT22;25200;53.394;10.414;2024-03-08T08:05:57;2.60;91.70
39519;DHT22;25200;53.394;10.414;2024-03-08T08:08:23;2.60;91.70
39519;DHT22;25200;53.394;10.414;2024-03-08T08:10:49;2.70;91.70
39519;DHT22;25200;53.394;10.414;2024-03-08T08:13:15;2.70;91.70
39519;DHT22;25200;53.394;10.414;2024-03-08T08:15:41;2.70;91.90
39519;DHT22;25200;53.394;10.414;2024-03-08T08:18:06;2.70;91.70
39519;DHT22;25200;53.394;10.414;2024-03-08T08:20:33;2.70;91.70
39519;DHT22;25200;53.394;10.414;2024-03-08T08:22:58;2.70;92.10
39519;DHT22;25200;53.394;10.414;2024-03-08T08:25:24;2.70;92.10
39519;DHT22;25200;53.394;10.414;2024-03-08T08:27:50;2.70;92.10
39519;DHT22;25200;53.394;10.414;2024-03-08T08:30:16;2.80;92.00
39519;DHT22;25200;53.394;10.414;2024-03-08T08:32:41;2.80;91.70
39519;DHT22;25200;53.394;10.414;2024-03-08T08:35:10;2.80;91.70
39519;DHT22;25200;53.394;10.414;2024-03-08T08:37:39;2.90;91.80
39519;DHT22;25200;53.394;10.414;2024-03-08T08:40:06;2.90;91.90
39519;DHT22;25200;53.394;10.414;2024-03-08T08:42:38;2.90;91.90
39519;DHT22;25200;53.394;10.414;2024-03-08T08:45:05;2.90;91.80
39519;DHT22;25200;53.394;10.414;2024-03-08T08:47:37;3.00;92.00
39519;DHT22;25200;53.394;10.414;2024-03-08T08:50:03;3.00;91.80
39519;DHT22;25200;53.394;10.414;2024-03-08T08:52:32;3.00;91.80
39519;DHT22;25200;53.394;10.414;2024-03-08T08:54:58;3.10;91.90
39519;DHT22;25200;53.394;10.414;2024-03-08T08:57:24;3.10;91.80
39519;DHT22;25200;53.394;10.414;2024-03-08T08:59:50;3.10;91.80
39519;DHT22;25200;53.394;10.414;2024-03-08T09:02:15;3.20;91.80
39519;DHT22;25200;53.394;10.414;2024-03-08T09:04:42;3.20;91.90
39519;DHT22;25200;53.394;10.414;2024-03-08T09:07:08;3.20;91.80
39519;DHT22;25200;53.394;10.414;2024-03-08T09:09:34;3.30;91.90
39519;DHT22;25200;53.394;10.414;2024-03-08T09:12:00;3.30;91.80
39519;DHT22;25200;53.394;10.414;2024-03-08T09:14:26;3.40;91.90
39519;DHT22;25200;53.394;10.414;2024-03-08T09:16:52;3.40;91.90
39519;DHT22;25200;53.394;10.414;2024-03-08T09:19:17;3.40;91.90
39519;DHT22;25200;53.394;10.414;2024-03-08T09:21:45;3.50;91.90
39519;DHT22;25200;53.394;10.414;2024-03-08T09:24:10;3.50;92.00
39519;DHT22;25200;53.394;10.414;2024-03-08T09:26:36;3.60;91.80
39519;DHT22;25200;53.394;10.414;2024-03-08T09:29:02;3.60;91.80
39519;DHT22;25200;53.394;10.414;2024-03-08T09:31:28;3.70;91.90
39519;DHT22;25200;53.394;10.414;2024-03-08T09:33:53;3.80;92.00
39519;DHT22;25200;53.394;10.414;2024-03-08T09:36:19;3.90;92.00
39519;DHT22;25200;53.394;10.414;2024-03-08T09:38:45;4.10;92.10
39519;DHT22;25200;53.394;10.414;2024-03-08T09:41:11;4.20;92.00
39519;DHT22;25200;53.394;10.414;2024-03-08T09:43:39;4.40;91.90
39519;DHT22;25200;53.394;10.414;2024-03-08T09:46:05;4.50;92.10
39519;DHT22;25200;53.394;10.414;2024-03-08T09:48:32;4.70;92.00
39519;DHT22;25200;53.394;10.414;2024-03-08T09:50:58;4.80;91.80
39519;DHT22;25200;53.394;10.414;2024-03-08T09:53:24;5.00;91.80
39519;DHT22;25200;53.394;10.414;2024-03-08T09:55:49;5.20;91.80
39519;DHT22;25200;53.394;10.414;2024-03-08T09:58:16;5.30;91.80
39519;DHT22;25200;53.394;10.414;2024-03-08T10:00:47;5.50;91.80
39519;DHT22;25200;53.394;10.414;2024-03-08T10:03:13;5.70;91.80
39519;DHT22;25200;53.394;10.414;2024-03-08T10:05:40;5.90;91.60
39519;DHT22;25200;53.394;10.414;2024-03-08T10:08:06;6.10;91.80
39519;DHT22;25200;53.394;10.414;2024-03-08T10:10:35;6.30;91.70
39519;DHT22;25200;53.394;10.414;2024-03-08T10:13:01;6.50;91.70
39519;DHT22;25200;53.394;10.414;2024-03-08T10:15:29;6.60;91.70
39519;DHT22;25200;53.394;10.414;2024-03-08T10:17:58;6.80;91.60
39519;DHT22;25200;53.394;10.414;2024-03-08T10:20:24;7.00;91.80
39519;DHT22;25200;53.394;10.414;2024-03-08T10:22:52;7.30;91.70
39519;DHT22;25200;53.394;10.414;2024-03-08T10:25:19;7.50;91.60
39519;DHT22;25200;53.394;10.414;2024-03-08T10:27:45;7.60;91.60
39519;DHT22;25200;53.394;10.414;2024-03-08T10:30:14;7.80;91.40
39519;DHT22;25200;53.394;10.414;2024-03-08T10:32:41;8.00;91.40
39519;DHT22;25200;53.394;10.414;2024-03-08T10:35:10;8.20;90.90
39519;DHT22;25200;53.394;10.414;2024-03-08T10:37:45;8.40;91.20
39519;DHT22;25200;53.394;10.414;2024-03-08T10:40:16;8.50;90.90
39519;DHT22;25200;53.394;10.414;2024-03-08T10:45:38;8.90;90.90
39519;DHT22;25200;53.394;10.414;2024-03-08T10:48:28;9.10;90.90
39519;DHT22;25200;53.394;10.414;2024-03-08T10:50:57;9.20;90.80
39519;DHT22;25200;53.394;10.414;2024-03-08T10:53:27;9.40;90.90
39519;DHT22;25200;53.394;10.414;2024-03-08T10:55:53;9.60;90.80
39519;DHT22;25200;53.394;10.414;2024-03-08T10:58:24;9.70;90.80
39519;DHT22;25200;53.394;10.414;2024-03-08T11:00:53;9.90;90.70
39519;DHT22;25200;53.394;10.414;2024-03-08T11:06:08;10.20;90.70
39519;DHT22;25200;53.394;10.414;2024-03-08T11:08:36;10.30;90.70
39519;DHT22;25200;53.394;10.414;2024-03-08T11:11:02;10.50;90.80
39519;DHT22;25200;53.394;10.414;2024-03-08T11:13:41;10.70;90.70
39519;DHT22;25200;53.394;10.414;2024-03-08T11:19:05;10.90;90.50
39519;DHT22;25200;53.394;10.414;2024-03-08T11:21:32;11.00;90.50
39519;DHT22;25200;53.394;10.414;2024-03-08T11:24:10;11.10;90.50
39519;DHT22;25200;53.394;10.414;2024-03-08T11:26:37;11.10;90.00
39519;DHT22;25200;53.394;10.414;2024-03-08T11:32:16;11.20;89.30
39519;DHT22;25200;53.394;10.414;2024-03-08T11:34:49;11.20;88.50
39519;DHT22;25200;53.394;10.414;2024-03-08T11:37:17;11.30;88.40
39519;DHT22;25200;53.394;10.414;2024-03-08T11:39:51;11.30;87.90
39519;DHT22;25200;53.394;10.414;2024-03-08T11:42:18;11.30;87.20
39519;DHT22;25200;53.394;10.414;2024-03-08T11:44:45;11.40;89.90
39519;DHT22;25200;53.394;10.414;2024-03-08T11:47:11;11.50;89.30
39519;DHT22;25200;53.394;10.414;2024-03-08T11:49:38;11.60;89.40
39519;DHT22;25200;53.394;10.414;2024-03-08T11:52:04;11.80;89.90
39519;DHT22;25200;53.394;10.414;2024-03-08T11:54:30;11.90;89.30
39519;DHT22;25200;53.394;10.414;2024-03-08T11:56:59;12.00;88.70
39519;DHT22;25200;53.394;10.414;2024-03-08T11:59:28;12.20;89.10
39519;DHT22;25200;53.394;10.414;2024-03-08T12:02:02;12.30;89.10
39519;DHT22;25200;53.394;10.414;2024-03-08T12:04:29;12.40;88.00
39519;DHT22;25200;53.394;10.414;2024-03-08T12:06:56;12.50;89.10
39519;DHT22;25200;53.394;10.414;2024-03-08T12:09:24;12.70;89.80
39519;DHT22;25200;53.394;10.414;2024-03-08T12:11:50;12.90;89.60
39519;DHT22;25200;53.394;10.414;2024-03-08T12:14:16;13.10;88.60
39519;DHT22;25200;53.394;10.414;2024-03-08T12:16:42;13.20;88.10
39519;DHT22;25200;53.394;10.414;2024-03-08T12:19:09;13.30;87.30
39519;DHT22;25200;53.394;10.414;2024-03-08T12:21:35;13.40;86.90
39519;DHT22;25200;53.394;10.414;2024-03-08T12:24:06;13.40;87.80
39519;DHT22;25200;53.394;10.414;2024-03-08T12:26:36;13.50;86.30
39519;DHT22;25200;53.394;10.414;2024-03-08T12:29:19;13.60;87.60
39519;DHT22;25200;53.394;10.414;2024-03-08T12:31:47;13.70;87.80
39519;DHT22;25200;53.394;10.414;2024-03-08T12:34:12;13.70;88.20
39519;DHT22;25200;53.394;10.414;2024-03-08T12:36:45;13.90;87.90
39519;DHT22;25200;53.394;10.414;2024-03-08T12:39:13;13.90;86.30
39519;DHT22;25200;53.394;10.414;2024-03-08T12:41:41;14.00;87.40
39519;DHT22;25200;53.394;10.414;2024-03-08T12:44:07;14.10;88.60
39519;DHT22;25200;53.394;10.414;2024-03-08T12:46:37;14.20;88.00
39519;DHT22;25200;53.394;10.414;2024-03-08T12:49:07;14.20;87.20
39519;DHT22;25200;53.394;10.414;2024-03-08T12:51:33;14.30;86.30
39519;DHT22;25200;53.394;10.414;2024-03-08T12:53:58;14.30;87.50
39519;DHT22;25200;53.394;10.414;2024-03-08T12:56:32;14.40;84.70
39519;DHT22;25200;53.394;10.414;2024-03-08T12:58:59;14.40;87.40
39519;DHT22;25200;53.394;10.414;2024-03-08T13:01:25;14.50;87.50
39519;DHT22;25200;53.394;10.414;2024-03-08T13:03:52;14.60;87.20
39519;DHT22;25200;53.394;10.414;2024-03-08T13:06:18;14.60;87.30
39519;DHT22;25200;53.394;10.414;2024-03-08T13:08:47;14.70;87.40
39519;DHT22;25200;53.394;10.414;2024-03-08T13:11:13;14.70;86.60
39519;DHT22;25200;53.394;10.414;2024-03-08T13:13:42;14.70;84.70
39519;DHT22;25200;53.394;10.414;2024-03-08T13:16:09;14.70;84.30
39519;DHT22;25200;53.394;10.414;2024-03-08T13:18:36;14.70;86.20
39519;DHT22;25200;53.394;10.414;2024-03-08T13:21:02;14.70;86.40
39519;DHT22;25200;53.394;10.414;2024-03-08T13:23:32;14.90;87.40
39519;DHT22;25200;53.394;10.414;2024-03-08T13:25:58;14.90;87.60
39519;DHT22;25200;53.394;10.414;2024-03-08T13:28:24;15.10;88.20
39519;DHT22;25200;53.394;10.414;2024-03-08T13:30:55;15.20;86.70
39519;DHT22;25200;53.394;10.414;2024-03-08T13:33:23;15.10;85.20
39519;DHT22;25200;53.394;10.414;2024-03-08T13:35:49;15.10;85.40
39519;DHT22;25200;53.394;10.414;2024-03-08T13:38:16;15.10;86.00
39519;DHT22;25200;53.394;10.414;2024-03-08T13:40:43;15.20;85.70
39519;DHT22;25200;53.394;10.414;2024-03-08T13:43:09;15.20;86.70
39519;DHT22;25200;53.394;10.414;2024-03-08T13:45:36;15.30;87.20
39519;DHT22;25200;53.394;10.414;2024-03-08T13:48:04;15.30;84.60
39519;DHT22;25200;53.394;10.414;2024-03-08T13:50:30;15.30;85.50
39519;DHT22;25200;53.394;10.414;2024-03-08T13:52:56;15.30;86.30
39519;DHT22;25200;53.394;10.414;2024-03-08T13:55:22;15.30;85.30
39519;DHT22;25200;53.394;10.414;2024-03-08T13:57:48;15.30;85.40
39519;DHT22;25200;53.394;10.414;2024-03-08T14:00:14;15.30;82.10
39519;DHT22;25200;53.394;10.414;2024-03-08T14:02:40;15.20;83.00
39519;DHT22;25200;53.394;10.414;2024-03-08T14:05:09;15.30;86.30
39519;DHT22;25200;53.394;10.414;2024-03-08T14:07:36;15.30;83.90
39519;DHT22;25200;53.394;10.414;2024-03-08T14:10:02;15.30;85.50
39519;DHT22;25200;53.394;10.414;2024-03-08T14:12:27;15.30;84.80
39519;DHT22;25200;53.394;10.414;2024-03-08T14:14:53;15.30;84.10
39519;DHT22;25200;53.394;10.414;2024-03-08T14:17:19;15.20;83.80
39519;DHT22;25200;53.394;10.414;2024-03-08T14:19:44;15.20;81.90
39519;DHT22;25200;53.394;10.414;2024-03-08T14:22:10;15.20;84.50
39519;DHT22;25200;53.394;10.414;2024-03-08T14:24:40;15.20;84.60
39519;DHT22;25200;53.394;10.414;2024-03-08T14:27:08;15.10;84.00
39519;DHT22;25200;53.394;10.414;2024-03-08T14:29:35;15.10;83.10
39519;DHT22;25200;53.394;10.414;2024-03-08T14:32:01;15.00;84.30
39519;DHT22;25200;53.394;10.414;2024-03-08T14:34:28;15.00;82.60
39519;DHT22;25200;53.394;10.414;2024-03-08T14:36:56;14.90;82.30
39519;DHT22;25200;53.394;10.414;2024-03-08T14:39:22;14.80;80.90
39519;DHT22;25200;53.394;10.414;2024-03-08T14:41:52;14.70;82.70
39519;DHT22;25200;53.394;10.414;2024-03-08T14:44:22;14.70;83.20
39519;DHT22;25200;53.394;10.414;2024-03-08T14:47:00;14.60;82.50
39519;DHT22;25200;53.394;10.414;2024-03-08T14:49:26;14.60;81.80
39519;DHT22;25200;53.394;10.414;2024-03-08T14:51:54;14.50;82.90
39519;DHT22;25200;53.394;10.414;2024-03-08T14:54:20;14.50;83.30
39519;DHT22;25200;53.394;10.414;2024-03-08T14:56:48;14.50;84.40
39519;DHT22;25200;53.394;10.414;2024-03-08T14:59:16;14.40;82.20
39519;DHT22;25200;53.394;10.414;2024-03-08T15:01:42;14.40;82.60
39519;DHT22;25200;53.394;10.414;2024-03-08T15:04:09;14.30;81.80
39519;DHT22;25200;53.394;10.414;2024-03-08T15:06:38;14.20;82.80
39519;DHT22;25200;53.394;10.414;2024-03-08T15:09:05;14.10;82.20
39519;DHT22;25200;53.394;10.414;2024-03-08T15:11:40;14.00;82.40
39519;DHT22;25200;53.394;10.414;2024-03-08T15:14:07;14.00;81.10
39519;DHT22;25200;53.394;10.414;2024-03-08T15:16:37;13.90;82.50
39519;DHT22;25200;53.394;10.414;2024-03-08T15:19:03;13.80;82.10
39519;DHT22;25200;53.394;10.414;2024-03-08T15:21:30;13.80;82.70
39519;DHT22;25200;53.394;10.414;2024-03-08T15:23:56;13.70;82.40
39519;DHT22;25200;53.394;10.414;2024-03-08T15:26:22;13.60;82.50
39519;DHT22;25200;53.394;10.414;2024-03-08T15:28:47;13.40;81.80
39519;DHT22;25200;53.394;10.414;2024-03-08T15:31:16;13.30;81.40
39519;DHT22;25200;53.394;10.414;2024-03-08T15:33:42;13.10;81.50
39519;DHT22;25200;53.394;10.414;2024-03-08T15:36:14;13.00;82.10
39519;DHT22;25200;53.394;10.414;2024-03-08T15:38:41;12.80;81.60
39519;DHT22;25200;53.394;10.414;2024-03-08T15:41:09;12.70;81.50